createdAt,value
2023-04-28T00:00:19.719Z,12.10
2023-04-28T00:01:40.480Z,12.10
2023-04-28T00:03:01.499Z,12.10
2023-04-28T00:04:22.835Z,12.10
2023-04-28T00:05:44.429Z,12.00
2023-04-28T00:07:05.220Z,12.00
2023-04-28T00:08:27.560Z,12.00
2023-04-28T00:09:48.567Z,12.10
2023-04-28T00:11:10.204Z,12.10
2023-04-28T00:12:30.758Z,12.10
2023-04-28T00:13:51.507Z,12.10
2023-04-28T00:15:12.397Z,12.00
2023-04-28T00:16:33.255Z,12.00
2023-04-28T00:17:54.006Z,12.10
2023-04-28T00:19:14.865Z,12.20
2023-04-28T00:20:35.795Z,12.20
2023-04-28T00:21:56.692Z,12.20
2023-04-28T00:23:17.675Z,12.30
2023-04-28T00:24:40.179Z,12.20
2023-04-28T00:26:00.744Z,12.30
2023-04-28T00:27:21.486Z,12.20
2023-04-28T00:28:42.250Z,12.30
2023-04-28T00:30:04.212Z,12.30
2023-04-28T00:31:28.466Z,12.30
2023-04-28T00:32:49.758Z,12.20
2023-04-28T00:34:10.635Z,12.20
2023-04-28T00:35:31.281Z,12.30
2023-04-28T00:36:52.089Z,12.30
2023-04-28T00:38:12.937Z,12.20
2023-04-28T00:39:33.814Z,12.20
2023-04-28T00:40:56.250Z,12.20
2023-04-28T00:42:16.703Z,12.30
2023-04-28T00:43:45.963Z,12.30
2023-04-28T00:45:07.966Z,12.30
2023-04-28T00:46:31.121Z,12.20
2023-04-28T00:47:52.530Z,12.20
2023-04-28T00:49:13.556Z,12.20
2023-04-28T00:50:34.375Z,12.20
2023-04-28T00:51:56.881Z,12.20
2023-04-28T00:53:17.586Z,12.10
2023-04-28T00:54:38.569Z,12.20
2023-04-28T00:56:00.779Z,12.20
2023-04-28T00:57:22.159Z,12.10
2023-04-28T00:58:43.199Z,12.20
2023-04-28T01:00:05.351Z,12.30
2023-04-28T01:01:26.460Z,12.20
2023-04-28T01:02:48.016Z,12.20
2023-04-28T01:04:08.884Z,12.10
2023-04-28T01:05:30.378Z,12.10
2023-04-28T01:06:53.455Z,12.10
2023-04-28T01:08:14.038Z,12.10
2023-04-28T01:09:34.866Z,12.00
2023-04-28T01:10:59.988Z,12.00
2023-04-28T01:12:20.776Z,12.10
2023-04-28T01:13:41.465Z,12.10
2023-04-28T01:15:02.602Z,12.10
2023-04-28T01:16:23.259Z,12.10
2023-04-28T01:17:43.916Z,12.00
2023-04-28T01:19:07.049Z,12.00
2023-04-28T01:20:27.750Z,12.00
2023-04-28T01:21:48.746Z,12.10
2023-04-28T01:23:12.819Z,12.20
2023-04-28T01:24:35.102Z,12.20
2023-04-28T01:25:56.198Z,12.20
2023-04-28T01:27:16.762Z,12.20
2023-04-28T01:28:37.697Z,12.10
2023-04-28T01:29:58.481Z,12.10
2023-04-28T01:31:19.504Z,12.10
2023-04-28T01:32:40.720Z,12.00
2023-04-28T01:34:01.632Z,12.00
2023-04-28T01:35:22.550Z,12.10
2023-04-28T01:36:43.383Z,12.10
2023-04-28T01:38:04.177Z,12.20
2023-04-28T01:39:27.759Z,12.10
2023-04-28T01:40:49.762Z,12.00
2023-04-28T01:42:10.504Z,12.00
2023-04-28T01:43:31.344Z,12.00
2023-04-28T01:44:52.287Z,12.00
2023-04-28T01:46:13.322Z,11.90
2023-04-28T01:47:34.528Z,11.90
2023-04-28T01:48:55.539Z,11.90
2023-04-28T01:50:16.274Z,11.80
2023-04-28T01:51:36.964Z,11.80
2023-04-28T01:52:57.708Z,11.80
2023-04-28T01:54:19.254Z,11.80
2023-04-28T01:55:40.286Z,11.80
2023-04-28T01:57:02.430Z,11.80
2023-04-28T01:58:23.643Z,11.90
2023-04-28T01:59:44.695Z,11.90
2023-04-28T02:01:05.518Z,11.80
2023-04-28T02:02:26.709Z,11.80
2023-04-28T02:03:48.384Z,11.80
2023-04-28T02:05:09.294Z,11.80
2023-04-28T02:06:30.123Z,11.80
2023-04-28T02:07:50.989Z,11.80
2023-04-28T02:09:11.771Z,11.80
2023-04-28T02:10:32.627Z,11.90
2023-04-28T02:11:53.278Z,11.80
2023-04-28T02:13:15.422Z,11.90
2023-04-28T02:14:36.139Z,11.90
2023-04-28T02:15:59.964Z,11.80
2023-04-28T02:17:20.582Z,11.80
2023-04-28T02:18:41.409Z,11.80
2023-04-28T02:20:02.241Z,11.70
2023-04-28T02:21:23.161Z,11.80
2023-04-28T02:22:43.857Z,11.80
2023-04-28T02:24:06.025Z,11.90
2023-04-28T02:25:26.753Z,11.90
2023-04-28T02:26:47.822Z,11.90
2023-04-28T02:28:08.520Z,11.90
2023-04-28T02:29:30.624Z,11.90
2023-04-28T02:30:51.373Z,11.90
2023-04-28T02:32:12.221Z,11.90
2023-04-28T02:33:33.393Z,11.80
2023-04-28T02:34:56.151Z,11.90
2023-04-28T02:36:17.060Z,11.80
2023-04-28T02:37:37.679Z,11.80
2023-04-28T02:38:58.546Z,11.70
2023-04-28T02:40:19.502Z,11.70
2023-04-28T02:41:40.264Z,11.70
2023-04-28T02:43:01.147Z,11.70
2023-04-28T02:44:22.297Z,11.70
2023-04-28T02:45:44.058Z,11.70
2023-04-28T02:47:05.141Z,11.70
2023-04-28T02:48:26.383Z,11.80
2023-04-28T02:49:47.416Z,11.70
2023-04-28T02:51:08.500Z,11.70
2023-04-28T02:52:29.195Z,11.70
2023-04-28T02:53:49.877Z,11.80
2023-04-28T02:55:10.770Z,11.70
2023-04-28T02:56:31.832Z,11.80
2023-04-28T02:57:52.790Z,11.80
2023-04-28T02:59:13.609Z,11.80
2023-04-28T03:00:34.449Z,11.80
2023-04-28T03:01:57.084Z,11.80
2023-04-28T03:03:17.924Z,11.80
2023-04-28T03:04:38.663Z,11.80
2023-04-28T03:05:59.538Z,11.80
2023-04-28T03:07:20.227Z,11.90
2023-04-28T03:08:41.210Z,11.90
2023-04-28T03:10:02.278Z,11.90
2023-04-28T03:11:23.203Z,11.80
2023-04-28T03:12:44.148Z,11.70
2023-04-28T03:14:05.025Z,11.80
2023-04-28T03:15:28.687Z,11.80
2023-04-28T03:16:49.659Z,11.70
2023-04-28T03:18:11.718Z,11.80
2023-04-28T03:19:32.473Z,11.70
2023-04-28T03:20:53.473Z,11.70
2023-04-28T03:22:14.476Z,11.70
2023-04-28T03:23:35.302Z,11.60
2023-04-28T03:24:56.409Z,11.60
2023-04-28T03:26:17.110Z,11.60
2023-04-28T03:27:37.915Z,11.70
2023-04-28T03:28:58.707Z,11.70
2023-04-28T03:30:19.791Z,11.60
2023-04-28T03:31:40.791Z,11.60
2023-04-28T03:33:02.144Z,11.70
2023-04-28T03:34:24.525Z,11.60
2023-04-28T03:35:45.384Z,11.60
2023-04-28T03:37:06.320Z,11.60
2023-04-28T03:38:27.390Z,11.60
2023-04-28T03:39:48.347Z,11.50
2023-04-28T03:41:09.299Z,11.50
2023-04-28T03:42:30.437Z,11.60
2023-04-28T03:43:51.131Z,11.70
2023-04-28T03:45:12.146Z,11.80
2023-04-28T03:46:32.780Z,11.80
2023-04-28T03:47:53.688Z,11.80
2023-04-28T03:49:14.558Z,11.70
2023-04-28T03:50:36.463Z,11.70
2023-04-28T03:51:56.920Z,11.60
2023-04-28T03:53:17.811Z,11.60
2023-04-28T03:54:38.674Z,11.50
2023-04-28T03:55:59.698Z,11.50
2023-04-28T03:57:20.426Z,11.50
2023-04-28T03:58:41.224Z,11.50
2023-04-28T04:00:02.258Z,11.60
2023-04-28T04:01:23.578Z,11.50
2023-04-28T04:02:44.871Z,11.60
2023-04-28T04:04:06.020Z,11.60
2023-04-28T04:05:26.816Z,11.50
2023-04-28T04:06:49.116Z,11.50
2023-04-28T04:08:10.604Z,11.50
2023-04-28T04:09:31.401Z,11.50
2023-04-28T04:10:52.186Z,11.50
2023-04-28T04:12:13.021Z,11.50
2023-04-28T04:13:34.044Z,11.40
2023-04-28T04:14:54.886Z,11.50
2023-04-28T04:16:16.142Z,11.50
2023-04-28T04:17:36.767Z,11.40
2023-04-28T04:18:57.413Z,11.40
2023-04-28T04:20:18.451Z,11.50
2023-04-28T04:21:39.310Z,11.40
2023-04-28T04:23:01.411Z,11.40
2023-04-28T04:24:22.143Z,11.50
2023-04-28T04:25:42.961Z,11.40
2023-04-28T04:27:03.972Z,11.50
2023-04-28T04:28:24.602Z,11.50
2023-04-28T04:29:45.627Z,11.40
2023-04-28T04:31:06.659Z,11.50
2023-04-28T04:32:27.457Z,11.50
2023-04-28T04:33:48.448Z,11.50
2023-04-28T04:35:09.990Z,11.60
2023-04-28T04:36:31.276Z,11.60
2023-04-28T04:37:51.953Z,11.60
2023-04-28T04:39:13.961Z,11.60
2023-04-28T04:40:34.779Z,11.70
2023-04-28T04:41:55.957Z,11.70
2023-04-28T04:43:16.841Z,11.60
2023-04-28T04:44:37.968Z,11.60
2023-04-28T04:45:58.698Z,11.70
2023-04-28T04:47:19.472Z,11.80
2023-04-28T04:48:40.188Z,11.70
2023-04-28T04:50:01.193Z,11.80
2023-04-28T04:51:21.905Z,11.80
2023-04-28T04:52:42.853Z,11.70
2023-04-28T04:54:03.996Z,11.70
2023-04-28T04:55:26.222Z,11.70
2023-04-28T04:56:46.932Z,11.70
2023-04-28T04:58:07.754Z,11.70
2023-04-28T04:59:29.082Z,11.70
2023-04-28T05:00:49.826Z,11.70
2023-04-28T05:02:10.661Z,11.70
2023-04-28T05:03:31.439Z,11.60
2023-04-28T05:04:53.384Z,11.60
2023-04-28T05:06:14.481Z,11.50
2023-04-28T05:07:35.854Z,11.60
2023-04-28T05:08:56.600Z,11.60
2023-04-28T05:10:17.331Z,11.60
2023-04-28T05:11:42.881Z,11.70
2023-04-28T05:13:03.608Z,11.60
2023-04-28T05:14:24.150Z,11.50
2023-04-28T05:15:45.123Z,11.50
2023-04-28T05:17:06.153Z,11.50
2023-04-28T05:18:27.049Z,11.40
2023-04-28T05:19:48.081Z,11.40
2023-04-28T05:21:08.889Z,11.30
2023-04-28T05:22:29.590Z,11.40
2023-04-28T05:23:50.266Z,11.20
2023-04-28T05:25:14.342Z,11.30
2023-04-28T05:26:36.562Z,11.20
2023-04-28T05:27:58.775Z,11.20
2023-04-28T05:29:20.142Z,11.20
2023-04-28T05:30:41.207Z,11.20
2023-04-28T05:32:02.254Z,11.10
2023-04-28T05:33:23.172Z,11.00
2023-04-28T05:34:43.896Z,11.00
2023-04-28T05:36:05.629Z,11.00
2023-04-28T05:37:28.897Z,11.00
2023-04-28T05:38:49.772Z,10.90
2023-04-28T05:40:11.280Z,10.90
2023-04-28T05:41:31.793Z,10.80
2023-04-28T05:42:53.026Z,10.70
2023-04-28T05:44:15.536Z,10.70
2023-04-28T05:45:36.521Z,10.70
2023-04-28T05:46:57.256Z,10.70
2023-04-28T05:48:18.079Z,10.70
2023-04-28T05:49:39.092Z,10.80
2023-04-28T05:51:00.245Z,10.80
2023-04-28T05:52:21.231Z,10.70
2023-04-28T05:53:42.077Z,10.70
2023-04-28T05:55:02.837Z,10.70
2023-04-28T05:56:23.563Z,10.70
2023-04-28T05:57:52.466Z,10.70
2023-04-28T05:59:19.034Z,10.70
2023-04-28T06:00:39.875Z,10.70
2023-04-28T06:02:00.921Z,10.70
2023-04-28T06:03:21.678Z,10.70
2023-04-28T06:04:42.479Z,10.80
2023-04-28T06:06:05.923Z,10.80
2023-04-28T06:07:28.612Z,10.80
2023-04-28T06:08:49.465Z,10.80
2023-04-28T06:10:11.337Z,10.90
2023-04-28T06:11:32.221Z,11.00
2023-04-28T06:12:53.291Z,11.00
2023-04-28T06:14:15.497Z,11.00
2023-04-28T06:15:36.304Z,11.10
2023-04-28T06:16:57.104Z,11.00
2023-04-28T06:18:18.211Z,11.10
2023-04-28T06:19:38.916Z,11.00
2023-04-28T06:21:00.104Z,11.00
2023-04-28T06:22:21.022Z,11.00
2023-04-28T06:23:41.869Z,11.00
2023-04-28T06:25:02.752Z,11.00
2023-04-28T06:26:23.943Z,11.00
2023-04-28T06:27:44.775Z,11.10
2023-04-28T06:29:05.352Z,11.00
2023-04-28T06:30:27.787Z,11.00
2023-04-28T06:31:48.420Z,11.00
2023-04-28T06:33:09.275Z,11.10
2023-04-28T06:34:30.142Z,11.00
2023-04-28T06:35:51.032Z,11.10
2023-04-28T06:37:11.882Z,11.00
2023-04-28T06:38:32.624Z,11.10
2023-04-28T06:39:53.693Z,11.10
2023-04-28T06:41:14.512Z,11.10
2023-04-28T06:42:35.310Z,11.20
2023-04-28T06:43:58.640Z,11.10
2023-04-28T06:45:19.468Z,11.10
2023-04-28T06:46:42.092Z,11.20
2023-04-28T06:48:03.070Z,11.10
2023-04-28T06:49:23.912Z,11.20
2023-04-28T06:50:44.824Z,11.20
2023-04-28T06:52:05.604Z,11.30
2023-04-28T06:53:29.600Z,11.30
2023-04-28T06:54:50.569Z,11.20
2023-04-28T06:56:11.807Z,11.30
2023-04-28T06:57:32.804Z,11.30
2023-04-28T06:58:57.819Z,11.30
2023-04-28T07:00:19.149Z,11.30
2023-04-28T07:01:41.315Z,11.20
2023-04-28T07:03:02.137Z,11.30
2023-04-28T07:04:23.562Z,11.20
2023-04-28T07:05:44.406Z,11.20
2023-04-28T07:07:05.675Z,11.30
2023-04-28T07:08:27.035Z,11.40
2023-04-28T07:09:47.934Z,11.40
2023-04-28T07:11:08.823Z,11.40
2023-04-28T07:12:31.894Z,11.50
2023-04-28T07:13:52.464Z,11.50
2023-04-28T07:15:13.185Z,11.50
2023-04-28T07:16:34.058Z,11.50
2023-04-28T07:17:57.971Z,11.50
2023-04-28T07:19:18.761Z,11.50
2023-04-28T07:20:39.564Z,11.50
2023-04-28T07:22:00.435Z,11.50
2023-04-28T07:23:21.324Z,11.60
2023-04-28T07:24:41.982Z,11.70
2023-04-28T07:26:02.714Z,11.60
2023-04-28T07:27:23.645Z,11.70
2023-04-28T07:28:44.779Z,11.70
2023-04-28T07:30:25.171Z,11.70
2023-04-28T07:31:47.697Z,11.80
2023-04-28T07:33:10.000Z,11.80
2023-04-28T07:34:30.760Z,11.80
2023-04-28T07:35:51.669Z,11.90
2023-04-28T07:37:12.591Z,11.90
2023-04-28T07:38:34.758Z,12.00
2023-04-28T07:39:56.028Z,12.10
2023-04-28T07:41:17.579Z,12.10
2023-04-28T07:42:38.294Z,12.20
2023-04-28T07:43:59.348Z,12.20
2023-04-28T07:45:20.560Z,12.30
2023-04-28T07:46:41.232Z,12.30
2023-04-28T07:48:02.301Z,12.30
2023-04-28T07:49:24.624Z,12.30
2023-04-28T07:50:45.455Z,12.30
2023-04-28T07:52:06.204Z,12.40
2023-04-28T07:53:27.755Z,12.40
2023-04-28T07:54:48.453Z,12.40
2023-04-28T07:56:09.226Z,12.50
2023-04-28T07:57:33.286Z,12.50
2023-04-28T07:58:54.409Z,12.50
2023-04-28T08:00:16.175Z,12.50
2023-04-28T08:01:36.599Z,12.60
2023-04-28T08:02:57.309Z,12.50
2023-04-28T08:04:18.391Z,12.60
2023-04-28T08:05:41.121Z,12.60
2023-04-28T08:07:01.777Z,12.70
2023-04-28T08:08:22.743Z,12.70
2023-04-28T08:09:43.371Z,12.80
2023-04-28T08:11:04.369Z,12.80
2023-04-28T08:12:27.000Z,12.80
2023-04-28T08:13:48.386Z,12.80
2023-04-28T08:15:10.067Z,12.90
2023-04-28T08:16:31.934Z,12.90
2023-04-28T08:17:54.390Z,12.90
2023-04-28T08:19:15.114Z,12.90
2023-04-28T08:20:35.833Z,12.90
2023-04-28T08:21:58.014Z,12.90
2023-04-28T08:23:18.828Z,13.00
2023-04-28T08:24:39.720Z,13.00
2023-04-28T08:26:00.578Z,12.90
2023-04-28T08:27:21.327Z,12.90
2023-04-28T08:28:42.047Z,12.90
2023-04-28T08:30:03.130Z,12.90
2023-04-28T08:31:23.801Z,12.90
2023-04-28T08:32:44.647Z,12.90
2023-04-28T08:34:05.642Z,13.00
2023-04-28T08:35:26.637Z,13.10
2023-04-28T08:36:47.594Z,13.10
2023-04-28T08:38:09.540Z,13.10
2023-04-28T08:39:30.592Z,13.20
2023-04-28T08:40:51.486Z,13.10
2023-04-28T08:42:12.934Z,13.10
2023-04-28T08:43:36.518Z,13.20
2023-04-28T08:44:58.083Z,13.20
2023-04-28T08:46:21.147Z,13.20
2023-04-28T08:47:42.868Z,13.30
2023-04-28T08:49:06.315Z,13.40
2023-04-28T08:50:29.498Z,13.40
2023-04-28T08:51:58.927Z,13.40
2023-04-28T08:53:24.637Z,13.50
2023-04-28T08:54:47.785Z,13.40
2023-04-28T08:56:10.348Z,13.40
2023-04-28T08:57:39.445Z,13.50
2023-04-28T08:59:03.919Z,13.50
2023-04-28T09:00:24.718Z,13.60
2023-04-28T09:01:49.165Z,13.50
2023-04-28T09:03:09.858Z,13.50
2023-04-28T09:04:30.969Z,13.50
2023-04-28T09:05:52.082Z,13.60
2023-04-28T09:07:13.144Z,13.60
2023-04-28T09:08:36.184Z,13.70
2023-04-28T09:10:18.076Z,13.80
2023-04-28T09:11:51.942Z,13.90
2023-04-28T09:13:27.964Z,13.90
2023-04-28T09:14:58.406Z,13.90
2023-04-28T09:16:19.006Z,13.90
2023-04-28T09:17:49.540Z,13.90
2023-04-28T09:19:10.723Z,13.90
2023-04-28T09:20:34.056Z,13.90
2023-04-28T09:21:56.779Z,13.90
2023-04-28T09:23:20.071Z,13.90
2023-04-28T09:24:42.253Z,13.90
2023-04-28T09:26:05.446Z,14.00
2023-04-28T09:27:29.247Z,14.00
2023-04-28T09:28:50.405Z,14.10
2023-04-28T09:30:12.854Z,14.10
2023-04-28T09:31:34.076Z,14.10
2023-04-28T09:33:04.851Z,14.10
2023-04-28T09:34:26.377Z,14.10
2023-04-28T09:35:47.410Z,14.10
2023-04-28T09:37:15.997Z,14.20
2023-04-28T09:38:44.129Z,14.20
2023-04-28T09:40:09.783Z,14.20
2023-04-28T09:41:41.427Z,14.30
2023-04-28T09:43:11.708Z,14.30
2023-04-28T09:44:39.842Z,14.30
2023-04-28T09:46:02.642Z,14.30
2023-04-28T09:47:23.528Z,14.40
2023-04-28T09:48:44.492Z,14.40
2023-04-28T09:50:09.076Z,14.40
2023-04-28T09:51:30.027Z,14.50
2023-04-28T09:52:57.672Z,14.50
2023-04-28T09:54:21.530Z,14.50
2023-04-28T09:55:46.920Z,14.50
2023-04-28T09:57:08.151Z,14.50
2023-04-28T09:58:30.745Z,14.60
2023-04-28T09:59:53.615Z,14.60
2023-04-28T10:01:15.455Z,14.60
2023-04-28T10:04:05.310Z,14.60
2023-04-28T10:05:26.722Z,14.60
2023-04-28T10:06:47.896Z,14.50
2023-04-28T10:08:08.694Z,14.50
2023-04-28T10:09:30.106Z,14.50
2023-04-28T10:10:55.659Z,14.50
2023-04-28T10:12:16.827Z,14.60
2023-04-28T10:13:37.831Z,14.50
2023-04-28T10:14:59.731Z,14.50
2023-04-28T10:16:21.020Z,14.50
2023-04-28T10:17:42.098Z,14.50
2023-04-28T10:19:04.648Z,14.50
2023-04-28T10:20:26.362Z,14.50
2023-04-28T10:22:01.262Z,14.40
2023-04-28T10:23:51.863Z,14.40
2023-04-28T10:25:27.739Z,14.40
2023-04-28T10:27:08.139Z,14.40
2023-04-28T10:28:29.341Z,14.40
2023-04-28T10:29:50.403Z,14.40
2023-04-28T10:31:12.540Z,14.40
2023-04-28T10:32:33.394Z,14.30
2023-04-28T10:33:55.476Z,14.40
2023-04-28T10:35:44.365Z,14.40
2023-04-28T10:37:05.030Z,14.40
2023-04-28T10:38:27.757Z,14.30
2023-04-28T10:40:31.940Z,14.30
2023-04-28T10:41:52.802Z,14.30
2023-04-28T10:43:35.004Z,14.30
2023-04-28T10:44:58.483Z,14.30
2023-04-28T10:46:19.021Z,14.20
2023-04-28T10:48:01.250Z,14.20
2023-04-28T10:50:07.588Z,14.20
2023-04-28T10:51:32.480Z,14.20
2023-04-28T10:52:52.920Z,14.30
2023-04-28T10:54:20.009Z,14.30
2023-04-28T10:55:43.478Z,14.30
2023-04-28T10:57:20.607Z,14.30
2023-04-28T10:58:46.710Z,14.30
2023-04-28T11:00:29.088Z,14.30
2023-04-28T11:01:49.850Z,14.30
2023-04-28T11:03:39.013Z,14.30
2023-04-28T11:05:17.312Z,14.30
2023-04-28T11:06:40.435Z,14.20
2023-04-28T11:08:33.741Z,14.10
2023-04-28T11:09:54.520Z,14.20
2023-04-28T11:11:17.692Z,14.10
2023-04-28T11:13:27.658Z,14.20
2023-04-28T11:14:49.920Z,14.30
2023-04-28T11:16:12.762Z,14.20
2023-04-28T11:17:41.672Z,14.30
2023-04-28T11:19:03.534Z,14.30
2023-04-28T11:20:24.676Z,14.30
2023-04-28T11:21:46.517Z,14.30
2023-04-28T11:23:10.219Z,14.30
2023-04-28T11:24:31.755Z,14.30
2023-04-28T11:25:56.274Z,14.30
2023-04-28T11:27:25.719Z,14.30
2023-04-28T11:28:54.565Z,14.30
2023-04-28T11:30:23.128Z,14.30
2023-04-28T11:31:50.864Z,14.30
2023-04-28T11:33:12.608Z,14.30
2023-04-28T11:34:33.917Z,14.30
2023-04-28T11:35:54.999Z,14.30
2023-04-28T11:37:16.432Z,14.30
2023-04-28T11:38:44.230Z,14.30
2023-04-28T11:40:10.988Z,14.30
2023-04-28T11:41:32.466Z,14.30
2023-04-28T11:42:53.308Z,14.30
2023-04-28T11:44:16.258Z,14.30
2023-04-28T11:45:38.904Z,14.40
2023-04-28T11:47:02.343Z,14.40
2023-04-28T11:48:23.749Z,14.50
2023-04-28T11:49:46.271Z,14.50
2023-04-28T11:51:07.567Z,14.50
2023-04-28T11:52:28.779Z,14.50
2023-04-28T11:53:49.492Z,14.50
2023-04-28T11:55:17.045Z,14.50
2023-04-28T11:56:39.478Z,14.50
2023-04-28T11:58:18.404Z,14.50
2023-04-28T11:59:39.944Z,14.50
2023-04-28T12:01:11.542Z,14.50
2023-04-28T12:02:32.648Z,14.60
2023-04-28T12:03:53.275Z,14.70
2023-04-28T12:05:14.301Z,14.70
2023-04-28T12:06:35.012Z,14.70
2023-04-28T12:07:55.938Z,14.70
2023-04-28T12:09:18.726Z,14.70
2023-04-28T12:10:39.434Z,14.70
2023-04-28T12:12:02.080Z,14.70
2023-04-28T12:13:22.707Z,14.70
2023-04-28T12:14:57.606Z,14.70
2023-04-28T12:16:42.393Z,14.70
2023-04-28T12:18:10.693Z,14.70
2023-04-28T12:19:43.310Z,14.70
2023-04-28T12:21:05.054Z,14.70
2023-04-28T12:22:29.109Z,14.60
2023-04-28T12:23:50.475Z,14.70
2023-04-28T12:25:12.987Z,14.70
2023-04-28T12:26:33.760Z,14.60
2023-04-28T12:28:01.775Z,14.60
2023-04-28T12:29:43.940Z,14.60
2023-04-28T12:31:06.811Z,14.60
2023-04-28T12:32:47.198Z,14.60
2023-04-28T12:34:08.391Z,14.60
2023-04-28T12:35:30.291Z,14.70
2023-04-28T12:36:51.959Z,14.60
2023-04-28T12:38:12.841Z,14.70
2023-04-28T12:39:34.901Z,14.70
2023-04-28T12:40:59.744Z,14.70
2023-04-28T12:42:20.658Z,14.70
2023-04-28T12:43:41.606Z,14.70
2023-04-28T12:45:02.574Z,14.60
2023-04-28T12:46:23.484Z,14.70
2023-04-28T12:47:44.332Z,14.70
2023-04-28T12:49:06.846Z,14.60
2023-04-28T12:50:27.686Z,14.70
2023-04-28T12:51:49.162Z,14.60
2023-04-28T12:53:10.116Z,14.60
2023-04-28T12:54:31.092Z,14.60
2023-04-28T12:55:51.699Z,14.60
2023-04-28T12:57:12.681Z,14.60
2023-04-28T12:58:34.714Z,14.60
2023-04-28T12:59:55.679Z,14.60
2023-04-28T13:01:16.695Z,14.60
2023-04-28T13:02:37.633Z,14.60
2023-04-28T13:03:58.442Z,14.60
2023-04-28T13:05:20.540Z,14.50
2023-04-28T13:06:41.390Z,14.50
2023-04-28T13:08:02.354Z,14.60
2023-04-28T13:09:23.036Z,14.60
2023-04-28T13:10:43.818Z,14.60
2023-04-28T13:12:04.933Z,14.70
2023-04-28T13:13:26.121Z,14.60
2023-04-28T13:14:51.837Z,14.70
2023-04-28T13:16:12.689Z,14.70
2023-04-28T13:17:33.768Z,14.70
2023-04-28T13:18:57.639Z,14.60
2023-04-28T13:20:19.874Z,14.60
2023-04-28T13:21:40.661Z,14.60
2023-04-28T13:23:01.466Z,14.60
2023-04-28T13:24:22.416Z,14.60
2023-04-28T13:25:43.111Z,14.60
2023-04-28T13:27:04.235Z,14.60
2023-04-28T13:28:25.461Z,14.60
2023-04-28T13:29:46.204Z,14.60
2023-04-28T13:31:07.157Z,14.60
2023-04-28T13:32:27.945Z,14.60
2023-04-28T13:33:49.041Z,14.70
2023-04-28T13:35:09.935Z,14.70
2023-04-28T13:36:32.282Z,14.70
2023-04-28T13:37:53.170Z,14.70
2023-04-28T13:39:14.053Z,14.80
2023-04-28T13:40:35.108Z,14.80
2023-04-28T13:41:57.567Z,14.80
2023-04-28T13:43:18.782Z,14.80
2023-04-28T13:44:39.446Z,14.80
2023-04-28T13:46:00.470Z,14.80
2023-04-28T13:47:21.349Z,14.80
2023-04-28T13:48:41.993Z,14.80
2023-04-28T13:50:03.012Z,14.80
2023-04-28T13:51:23.559Z,14.80
2023-04-28T13:52:45.612Z,14.90
2023-04-28T13:54:06.570Z,14.90
2023-04-28T13:55:27.371Z,14.80
2023-04-28T13:56:48.282Z,14.80
2023-04-28T13:58:09.245Z,14.80
2023-04-28T13:59:30.494Z,14.80
2023-04-28T14:00:56.970Z,14.80
2023-04-28T14:02:17.947Z,14.90
2023-04-28T14:03:39.357Z,14.80
2023-04-28T14:05:00.356Z,14.90
2023-04-28T14:06:21.108Z,14.90
2023-04-28T14:07:45.010Z,14.90
2023-04-28T14:09:07.500Z,14.90
2023-04-28T14:10:28.586Z,14.90
2023-04-28T14:11:49.082Z,14.90
2023-04-28T14:13:09.886Z,14.90
2023-04-28T14:14:30.657Z,14.80
2023-04-28T14:15:59.244Z,14.80
2023-04-28T14:17:20.787Z,14.80
2023-04-28T14:18:41.801Z,14.80
2023-04-28T14:20:04.169Z,14.80
2023-04-28T14:21:24.746Z,14.80
2023-04-28T14:22:45.564Z,14.80
2023-04-28T14:24:07.802Z,14.80
2023-04-28T14:25:28.552Z,14.80
2023-04-28T14:26:49.503Z,14.80
2023-04-28T14:28:10.662Z,14.80
2023-04-28T14:29:31.623Z,14.80
2023-04-28T14:30:53.666Z,14.90
2023-04-28T14:32:14.956Z,14.90
2023-04-28T14:33:35.618Z,14.90
2023-04-28T14:34:56.471Z,14.90
2023-04-28T14:36:17.366Z,14.80
2023-04-28T14:37:38.251Z,14.80
2023-04-28T14:38:59.241Z,14.80
2023-04-28T14:40:21.352Z,14.80
2023-04-28T14:41:42.235Z,14.80
2023-04-28T14:43:47.748Z,14.80
2023-04-28T14:45:09.925Z,14.80
2023-04-28T14:46:30.722Z,14.80
2023-04-28T14:47:51.616Z,14.80
2023-04-28T14:49:12.354Z,14.80
2023-04-28T14:50:33.650Z,14.80
2023-04-28T14:51:54.578Z,14.80
2023-04-28T14:53:15.019Z,14.80
2023-04-28T14:54:35.776Z,14.80
2023-04-28T14:56:01.964Z,14.70
2023-04-28T14:57:32.040Z,14.80
2023-04-28T14:58:54.158Z,14.70
2023-04-28T15:00:15.902Z,14.70
2023-04-28T15:01:36.541Z,14.70
2023-04-28T15:02:57.363Z,14.70
2023-04-28T15:04:18.905Z,14.70
2023-04-28T15:05:40.697Z,14.70
2023-04-28T15:07:01.439Z,14.70
2023-04-28T15:08:22.030Z,14.80
2023-04-28T15:09:42.449Z,14.80
2023-04-28T15:11:02.931Z,14.80
2023-04-28T15:12:23.670Z,14.70
2023-04-28T15:13:43.887Z,14.70
2023-04-28T15:15:06.675Z,14.70
2023-04-28T15:16:27.304Z,14.70
2023-04-28T15:17:47.904Z,14.70
2023-04-28T15:19:08.641Z,14.70
2023-04-28T15:20:31.290Z,14.70
2023-04-28T15:21:51.782Z,14.70
2023-04-28T15:23:12.435Z,14.70
2023-04-28T15:24:33.529Z,14.70
2023-04-28T15:25:54.301Z,14.60
2023-04-28T15:27:14.910Z,14.60
2023-04-28T15:28:35.696Z,14.60
2023-04-28T15:29:56.759Z,14.60
2023-04-28T15:31:18.799Z,14.60
2023-04-28T15:32:39.586Z,14.60
2023-04-28T15:34:00.396Z,14.60
2023-04-28T15:35:21.161Z,14.60
2023-04-28T15:36:45.491Z,14.60
2023-04-28T15:38:06.749Z,14.50
2023-04-28T15:39:27.079Z,14.50
2023-04-28T15:40:47.508Z,14.50
2023-04-28T15:42:07.788Z,14.50
2023-04-28T15:43:28.715Z,14.50
2023-04-28T15:44:49.938Z,14.50
2023-04-28T15:46:10.940Z,14.50
2023-04-28T15:47:33.165Z,14.50
2023-04-28T15:48:53.759Z,14.50
2023-04-28T15:50:14.658Z,14.50
2023-04-28T15:51:35.021Z,14.50
2023-04-28T15:52:55.835Z,14.50
2023-04-28T15:54:17.320Z,14.50
2023-04-28T15:55:37.930Z,14.50
2023-04-28T15:56:58.391Z,14.50
2023-04-28T15:58:19.575Z,14.40
2023-04-28T15:59:40.543Z,14.40
2023-04-28T16:01:01.346Z,14.40
2023-04-28T16:02:23.505Z,14.40
2023-04-28T16:03:47.844Z,14.40
2023-04-28T16:05:09.686Z,14.40
2023-04-28T16:06:32.244Z,14.40
2023-04-28T16:07:53.121Z,14.40
2023-04-28T16:09:16.055Z,14.40
2023-04-28T16:10:36.774Z,14.30
2023-04-28T16:11:57.608Z,14.30
2023-04-28T16:13:18.241Z,14.30
2023-04-28T16:14:39.283Z,14.30
2023-04-28T16:15:59.977Z,14.30
2023-04-28T16:17:20.737Z,14.30
2023-04-28T16:18:41.671Z,14.30
2023-04-28T16:20:04.538Z,14.30
2023-04-28T16:21:25.091Z,14.30
2023-04-28T16:22:46.169Z,14.30
2023-04-28T16:24:06.766Z,14.30
2023-04-28T16:25:27.571Z,14.30
2023-04-28T16:26:48.466Z,14.30
2023-04-28T16:28:09.194Z,14.30
2023-04-28T16:29:30.263Z,14.30
2023-04-28T16:30:51.285Z,14.30
2023-04-28T16:32:12.048Z,14.30
2023-04-28T16:33:32.426Z,14.30
2023-04-28T16:34:53.191Z,14.20
2023-04-28T16:36:15.152Z,14.30
2023-04-28T16:37:35.695Z,14.20
2023-04-28T16:38:56.359Z,14.30
2023-04-28T16:40:16.921Z,14.30
2023-04-28T16:41:37.793Z,14.30
2023-04-28T16:42:58.643Z,14.30
2023-04-28T16:44:19.318Z,14.30
2023-04-28T16:45:40.173Z,14.30
2023-04-28T16:47:01.238Z,14.30
2023-04-28T16:48:21.926Z,14.30
2023-04-28T16:49:42.822Z,14.30
2023-04-28T16:51:03.653Z,14.30
2023-04-28T16:52:26.491Z,14.30
2023-04-28T16:53:46.924Z,14.30
2023-04-28T16:55:08.551Z,14.30
2023-04-28T16:56:29.070Z,14.30
2023-04-28T16:57:49.781Z,14.30
2023-04-28T16:59:10.420Z,14.20
2023-04-28T17:00:31.331Z,14.20
2023-04-28T17:01:52.005Z,14.10
2023-04-28T17:03:12.682Z,14.10
2023-04-28T17:04:33.665Z,14.10
2023-04-28T17:05:54.515Z,14.10
2023-04-28T17:07:15.326Z,14.10
2023-04-28T17:08:37.494Z,14.00
2023-04-28T17:09:58.233Z,14.00
2023-04-28T17:11:18.797Z,13.90
2023-04-28T17:12:39.668Z,13.90
2023-04-28T17:14:00.311Z,13.80
2023-04-28T17:15:20.948Z,13.80
2023-04-28T17:16:41.755Z,13.80
2023-04-28T17:18:05.476Z,13.80
2023-04-28T17:19:26.378Z,13.70
2023-04-28T17:20:46.743Z,13.70
2023-04-28T17:22:07.479Z,13.60
2023-04-28T17:23:27.901Z,13.60
2023-04-28T17:24:49.954Z,13.60
2023-04-28T17:26:13.868Z,13.60
2023-04-28T17:27:34.637Z,13.60
2023-04-28T17:28:55.740Z,13.60
2023-04-28T17:30:16.683Z,13.50
2023-04-28T17:31:39.183Z,13.50
2023-04-28T17:32:59.730Z,13.50
2023-04-28T17:34:20.365Z,13.50
2023-04-28T17:35:40.956Z,13.50
2023-04-28T17:37:04.623Z,13.50
2023-04-28T17:38:25.355Z,13.50
2023-04-28T17:39:45.998Z,13.40
2023-04-28T17:41:08.239Z,13.40
2023-04-28T17:42:32.040Z,13.40